createdAt,value
2023-01-30T00:01:01.300Z,47.3437
2023-01-30T00:06:02.984Z,46.84042
2023-01-30T00:11:04.891Z,48.25579
2023-01-30T00:16:06.685Z,48.00599
2023-01-30T00:21:08.369Z,47.05439
2023-01-30T00:26:10.070Z,48.72337
2023-01-30T00:31:12.108Z,49.27829
2023-01-30T00:36:13.801Z,47.98939
2023-01-30T00:41:15.408Z,48.90949
2023-01-30T00:46:17.053Z,49.97655
2023-01-30T00:51:18.795Z,51.75432
2023-01-30T00:56:20.412Z,50.24807
2023-01-30T01:01:22.133Z,49.36987
2023-01-30T01:06:23.903Z,51.31784
2023-01-30T01:11:25.544Z,53.01334
2023-01-30T01:16:27.358Z,53.47642
2023-01-30T01:21:29.173Z,51.93703
2023-01-30T01:26:30.911Z,52.26002
2023-01-30T01:31:32.653Z,52.11785
2023-01-30T01:36:53.790Z,52.96469
2023-01-30T01:41:56.276Z,55.58557
2023-01-30T01:46:57.879Z,56.52152
2023-01-30T01:51:59.575Z,55.34542
2023-01-30T01:57:01.351Z,55.32948
2023-01-30T02:02:03.092Z,54.68979
2023-01-30T02:07:04.815Z,55.10172
2023-01-30T02:12:06.452Z,54.79396
2023-01-30T02:17:08.079Z,54.37686
2023-01-30T02:22:09.843Z,54.08742
2023-01-30T02:27:11.667Z,57.0192
2023-01-30T02:32:13.255Z,58.3024
2023-01-30T02:37:15.232Z,59.17575
2023-01-30T02:42:16.994Z,57.74374
2023-01-30T02:47:18.619Z,59.02047
2023-01-30T02:52:20.342Z,57.00917
2023-01-30T02:57:22.122Z,58.02292
2023-01-30T03:02:23.805Z,56.58434
2023-01-30T03:07:25.552Z,57.94351
2023-01-30T03:12:27.173Z,57.726
2023-01-30T03:17:29.402Z,57.52266
2023-01-30T03:22:31.110Z,57.75685
2023-01-30T03:27:32.805Z,56.94882
2023-01-30T03:32:34.479Z,56.47033
2023-01-30T03:37:36.195Z,56.68441
2023-01-30T03:42:38.048Z,59.89703
2023-01-30T03:47:39.687Z,64.20618
2023-01-30T03:52:41.603Z,60.14519
2023-01-30T03:57:43.348Z,61.22572
2023-01-30T04:02:45.107Z,58.70834
2023-01-30T04:07:46.960Z,58.87611
2023-01-30T04:12:48.540Z,57.84314
2023-01-30T04:17:50.218Z,62.2964
2023-01-30T04:22:51.978Z,59.15537
2023-01-30T04:27:53.606Z,62.03895
2023-01-30T04:32:55.266Z,59.01501
2023-01-30T04:37:56.969Z,61.93264
2023-01-30T04:42:58.672Z,62.16995
2023-01-30T04:48:00.290Z,62.46705
2023-01-30T04:53:01.987Z,64.96192
2023-01-30T04:58:03.834Z,62.096
2023-01-30T05:03:05.736Z,61.1843
2023-01-30T05:08:07.540Z,60.34996
2023-01-30T05:13:09.336Z,62.50866
2023-01-30T05:18:10.928Z,64.63435
2023-01-30T05:23:12.611Z,62.09645
2023-01-30T05:28:14.332Z,60.77565
2023-01-30T05:33:15.984Z,60.77103
2023-01-30T05:38:17.661Z,61.52445
2023-01-30T05:43:19.288Z,60.91434
2023-01-30T05:48:20.886Z,59.28782
2023-01-30T05:53:22.671Z,62.64634
2023-01-30T05:58:24.328Z,63.57257
2023-01-30T06:03:26.026Z,60.70688
2023-01-30T06:08:27.787Z,62.91196
2023-01-30T06:13:29.430Z,60.54323
2023-01-30T06:18:31.068Z,59.30325
2023-01-30T06:23:33.113Z,59.19541
2023-01-30T06:28:34.716Z,59.60528
2023-01-30T06:33:36.352Z,59.05943
2023-01-30T06:38:38.310Z,63.53054
2023-01-30T06:43:40.103Z,62.02527
2023-01-30T06:48:41.692Z,60.99771
2023-01-30T06:53:43.130Z,61.21799
2023-01-30T06:58:44.889Z,60.89707
2023-01-30T07:03:46.597Z,60.23822
2023-01-30T07:08:48.328Z,65.73359
2023-01-30T07:13:50.277Z,68.84202
2023-01-30T07:18:52.277Z,66.57125
2023-01-30T07:23:54.005Z,62.69798
2023-01-30T07:28:55.647Z,63.50661
2023-01-30T07:33:57.277Z,63.8051
2023-01-30T07:38:59.034Z,59.27273
2023-01-30T07:44:00.680Z,58.97367
2023-01-30T07:49:02.435Z,59.83814
2023-01-30T07:54:04.359Z,63.18439
2023-01-30T07:59:06.096Z,63.82745
2023-01-30T08:04:07.689Z,64.25536
2023-01-30T08:09:09.477Z,65.6875
2023-01-30T08:14:11.157Z,63.61576
2023-01-30T08:19:12.778Z,63.75549
2023-01-30T08:24:14.423Z,64.30993
2023-01-30T08:29:16.089Z,61.39832
2023-01-30T08:34:17.899Z,63.06373
2023-01-30T08:39:19.564Z,65.24649
2023-01-30T08:44:21.252Z,63.10927
2023-01-30T08:49:22.834Z,63.05897
2023-01-30T08:54:24.453Z,62.39311
2023-01-30T08:59:26.113Z,61.6499
2023-01-30T09:04:27.749Z,60.92346
2023-01-30T09:09:29.369Z,62.90613
2023-01-30T09:14:31.049Z,60.44411
2023-01-30T09:19:32.725Z,59.82228
2023-01-30T09:24:34.573Z,61.04657
2023-01-30T09:29:36.197Z,61.20447
2023-01-30T09:34:37.863Z,60.43613
2023-01-30T09:39:39.504Z,60.7749
2023-01-30T09:44:41.105Z,63.03494
2023-01-30T09:49:42.775Z,64.54343
2023-01-30T09:54:44.528Z,64.04437
2023-01-30T09:59:46.109Z,64.92623
2023-01-30T10:05:00.429Z,67.8985
2023-01-30T10:10:02.440Z,68.94115
2023-01-30T10:15:04.076Z,66.62781
2023-01-30T10:20:05.706Z,67.00111
2023-01-30T10:25:07.345Z,66.01306
2023-01-30T10:30:09.080Z,65.27718
2023-01-30T10:35:10.732Z,63.62688
2023-01-30T10:40:12.331Z,63.08439
2023-01-30T10:45:13.947Z,61.4257
2023-01-30T10:50:16.159Z,64.72135
2023-01-30T10:55:22.144Z,65.45787
2023-01-30T11:00:29.851Z,65.63013
2023-01-30T11:05:31.506Z,65.56386
2023-01-30T11:10:33.150Z,67.27831
2023-01-30T11:15:34.768Z,68.30106
2023-01-30T11:20:36.373Z,66.91001
2023-01-30T11:25:38.001Z,67.94688
2023-01-30T11:30:39.637Z,67.83217
2023-01-30T11:35:41.328Z,67.79815
2023-01-30T11:40:42.957Z,67.44103
2023-01-30T11:45:44.781Z,68.98518
2023-01-30T11:50:49.383Z,68.95409
2023-01-30T11:56:02.931Z,68.90272
2023-01-30T12:01:07.273Z,68.36647
2023-01-30T12:06:08.853Z,65.65196
2023-01-30T12:11:10.465Z,66.01004
2023-01-30T12:16:12.151Z,64.53994
2023-01-30T12:21:13.756Z,66.23945
2023-01-30T12:26:15.445Z,68.35135
2023-01-30T12:31:17.354Z,66.78889
2023-01-30T12:36:18.933Z,65.99253
2023-01-30T12:41:20.531Z,65.31505
2023-01-30T12:46:22.348Z,63.24293
2023-01-30T12:51:24.141Z,64.65582
2023-01-30T12:56:25.788Z,65.92803
2023-01-30T13:01:27.493Z,64.90238
2023-01-30T13:06:29.155Z,62.45926
2023-01-30T13:11:30.798Z,62.86867
2023-01-30T13:16:32.588Z,62.8252
2023-01-30T13:21:34.270Z,61.51598
2023-01-30T13:26:35.985Z,62.68373
2023-01-30T13:31:38.060Z,63.87098
2023-01-30T13:36:39.764Z,65.35243
2023-01-30T13:41:41.455Z,65.81178
2023-01-30T13:46:43.152Z,65.13891
2023-01-30T13:51:44.844Z,65.90621
2023-01-30T13:56:46.489Z,67.9029
2023-01-30T14:01:48.155Z,68.01935
2023-01-30T14:06:49.821Z,67.4297
2023-01-30T14:11:51.466Z,68.0554
2023-01-30T14:16:53.091Z,67.86813
2023-01-30T14:21:54.733Z,67.05629
2023-01-30T14:26:56.540Z,65.72354
2023-01-30T14:31:58.309Z,66.23434
2023-01-30T14:37:00.083Z,68.05601
2023-01-30T14:42:01.747Z,66.93978
2023-01-30T14:47:33.905Z,67.52676
2023-01-30T14:52:45.432Z,62.63415
2023-01-30T14:57:47.068Z,62.06044
2023-01-30T15:02:48.720Z,63.46548
2023-01-30T15:07:50.324Z,67.63272
2023-01-30T15:12:52.130Z,68.72232
2023-01-30T15:18:07.077Z,68.35242
2023-01-30T15:23:09.490Z,65.96069
2023-01-30T15:28:11.067Z,63.13047
2023-01-30T15:33:12.754Z,64.73956
2023-01-30T15:38:15.859Z,63.48087
2023-01-30T15:43:17.819Z,65.59263
2023-01-30T15:48:19.656Z,63.15897
2023-01-30T15:53:21.277Z,61.8736
2023-01-30T15:58:22.959Z,61.84117
2023-01-30T16:03:24.661Z,61.75626
2023-01-30T16:08:26.379Z,60.01874
2023-01-30T16:13:28.012Z,60.13898
2023-01-30T16:18:29.742Z,62.44674
2023-01-30T16:23:31.554Z,59.32529
2023-01-30T16:28:33.356Z,58.65674
2023-01-30T16:33:35.154Z,58.92148
2023-01-30T16:38:36.877Z,60.21823
2023-01-30T16:43:38.584Z,59.51673
2023-01-30T16:48:40.221Z,58.37495
2023-01-30T16:53:43.448Z,64.24269
2023-01-30T16:58:45.380Z,60.80983
2023-01-30T17:03:47.278Z,60.79327
2023-01-30T17:08:48.943Z,62.78402
2023-01-30T17:13:50.595Z,62.96766
2023-01-30T17:18:52.666Z,62.57053
2023-01-30T17:23:54.319Z,61.83358
2023-01-30T17:28:55.944Z,59.76786
2023-01-30T17:33:57.666Z,58.80907
2023-01-30T17:38:59.370Z,57.66629
2023-01-30T17:44:01.003Z,55.06842
2023-01-30T17:49:02.872Z,52.59878
2023-01-30T17:54:04.586Z,54.25836
2023-01-30T17:59:06.222Z,57.66724
2023-01-30T18:04:08.083Z,58.48099
2023-01-30T18:09:09.706Z,54.69471
2023-01-30T18:14:11.350Z,55.28379
2023-01-30T18:19:13.078Z,53.33627
2023-01-30T18:24:14.736Z,52.08159
2023-01-30T18:29:16.370Z,54.34608
2023-01-30T18:34:18.000Z,54.10732
2023-01-30T18:39:19.687Z,54.24979
2023-01-30T18:44:21.351Z,52.95471
2023-01-30T18:49:22.979Z,52.24563
2023-01-30T18:54:24.666Z,55.03499
2023-01-30T18:59:26.468Z,52.42784
2023-01-30T19:04:28.083Z,53.4206
2023-01-30T19:09:29.931Z,52.3385
2023-01-30T19:14:31.567Z,52.99386
2023-01-30T19:19:33.161Z,54.56753
2023-01-30T19:24:34.872Z,51.17906
2023-01-30T19:29:36.745Z,51.82396
2023-01-30T19:34:38.395Z,53.21127
2023-01-30T19:39:40.129Z,53.5954
2023-01-30T19:44:41.931Z,53.02402
2023-01-30T19:49:43.667Z,50.34416
2023-01-30T19:54:45.384Z,50.72739
2023-01-30T19:59:47.049Z,51.48581
2023-01-30T20:04:48.694Z,49.47922
2023-01-30T20:09:50.395Z,47.61214
2023-01-30T20:14:52.064Z,46.97123
2023-01-30T20:19:53.865Z,47.08553
2023-01-30T20:24:55.523Z,48.27461
2023-01-30T20:29:57.160Z,43.75178
2023-01-30T20:34:58.825Z,44.38809
2023-01-30T20:40:00.467Z,44.2586
2023-01-30T20:45:02.135Z,46.25946
2023-01-30T20:50:04.193Z,42.88647
2023-01-30T20:55:06.129Z,43.86146
2023-01-30T21:00:07.742Z,43.68732
2023-01-30T21:05:09.367Z,43.3018
2023-01-30T21:10:11.037Z,43.3457
2023-01-30T21:15:12.788Z,42.62207
2023-01-30T21:20:14.442Z,43.11309
2023-01-30T21:25:16.090Z,43.76024
2023-01-30T21:30:17.649Z,44.749
2023-01-30T21:35:19.697Z,45.02313
2023-01-30T21:40:21.591Z,43.24006
2023-01-30T21:45:23.352Z,41.45527
2023-01-30T21:50:24.980Z,37.05662
2023-01-30T21:55:26.669Z,38.6583
2023-01-30T22:00:28.452Z,39.23373
2023-01-30T22:05:30.090Z,40.98785
2023-01-30T22:10:31.781Z,38.43151
2023-01-30T22:15:33.411Z,40.44207
2023-01-30T22:20:35.107Z,40.00866
2023-01-30T22:25:37.277Z,38.40391
2023-01-30T22:30:39.040Z,37.67909
2023-01-30T22:35:40.973Z,39.44775
2023-01-30T22:40:42.599Z,40.4626
2023-01-30T22:45:44.406Z,41.51312
2023-01-30T22:50:46.148Z,40.0324
2023-01-30T22:55:48.685Z,40.05703
2023-01-30T23:00:50.415Z,39.22383
2023-01-30T23:05:52.064Z,38.66796
2023-01-30T23:10:53.675Z,39.77257
2023-01-30T23:15:55.429Z,40.25795
2023-01-30T23:20:57.192Z,40.89965
2023-01-30T23:25:59.076Z,39.76242
2023-01-30T23:31:01.007Z,40.06773
2023-01-30T23:36:02.877Z,41.71045
2023-01-30T23:41:04.508Z,41.62114
2023-01-30T23:46:06.394Z,41.09073
2023-01-30T23:51:08.218Z,40.93235
2023-01-30T23:56:09.966Z,39.48432
